createdAt,value
2023-12-03T00:01:15.090Z,-1.53
2023-12-03T00:04:01.737Z,-1.53
2023-12-03T00:06:31.871Z,-1.52
2023-12-03T00:09:03.417Z,-1.54
2023-12-03T00:11:32.561Z,-1.57
2023-12-03T00:14:02.528Z,-1.61
2023-12-03T00:16:35.126Z,-1.63
2023-12-03T00:19:06.765Z,-1.62
2023-12-03T00:21:39.498Z,-1.57
2023-12-03T00:24:09.698Z,-1.55
2023-12-03T00:26:40.108Z,-1.55
2023-12-03T00:29:15.297Z,-1.53
2023-12-03T00:31:46.259Z,-1.53
2023-12-03T00:34:20.201Z,-1.60
2023-12-03T00:36:49.532Z,-1.65
2023-12-03T00:39:18.519Z,-1.66
2023-12-03T00:41:50.281Z,-1.62
2023-12-03T00:44:20.231Z,-1.60
2023-12-03T00:46:50.447Z,-1.60
2023-12-03T00:49:23.040Z,-1.62
2023-12-03T00:51:53.222Z,-1.62
2023-12-03T00:54:22.944Z,-1.66
2023-12-03T00:56:55.055Z,-1.70
2023-12-03T00:59:26.135Z,-1.73
2023-12-03T01:01:56.177Z,-1.74
2023-12-03T01:04:27.956Z,-1.74
2023-12-03T01:06:58.069Z,-1.74
2023-12-03T01:09:34.993Z,-1.74
2023-12-03T01:12:05.555Z,-1.74
2023-12-03T01:14:34.639Z,-1.75
2023-12-03T01:17:05.029Z,-1.76
2023-12-03T01:19:34.069Z,-1.77
2023-12-03T01:22:05.522Z,-1.76
2023-12-03T01:24:35.824Z,-1.71
2023-12-03T01:27:06.951Z,-1.66
2023-12-03T01:29:38.250Z,-1.63
2023-12-03T01:32:11.128Z,-1.65
2023-12-03T01:34:41.729Z,-1.71
2023-12-03T01:37:14.825Z,-1.78
2023-12-03T01:39:44.242Z,-1.83
2023-12-03T01:42:19.943Z,-1.86
2023-12-03T01:44:53.221Z,-1.86
2023-12-03T01:47:23.728Z,-1.87
2023-12-03T01:49:56.649Z,-1.89
2023-12-03T01:52:27.835Z,-1.92
2023-12-03T01:55:01.136Z,-1.95
2023-12-03T01:57:33.923Z,-1.92
2023-12-03T02:00:06.064Z,-1.92
2023-12-03T02:02:43.193Z,-1.97
2023-12-03T02:05:15.124Z,-2.04
2023-12-03T02:07:46.649Z,-2.08
2023-12-03T02:10:21.238Z,-2.07
2023-12-03T02:12:50.455Z,-2.09
2023-12-03T02:15:19.377Z,-2.11
2023-12-03T02:17:53.374Z,-2.14
2023-12-03T02:20:27.202Z,-2.17
2023-12-03T02:23:01.250Z,-2.21
2023-12-03T02:25:32.629Z,-2.25
2023-12-03T02:28:03.253Z,-2.29
2023-12-03T02:30:33.230Z,-2.31
2023-12-03T02:33:04.484Z,-2.31
2023-12-03T02:35:35.906Z,-2.31
2023-12-03T02:38:07.056Z,-2.28
2023-12-03T02:40:39.280Z,-2.25
2023-12-03T02:43:09.769Z,-2.26
2023-12-03T02:45:39.184Z,-2.21
2023-12-03T02:48:12.590Z,-2.12
2023-12-03T02:50:41.749Z,-2.11
2023-12-03T02:53:12.904Z,-2.12
2023-12-03T02:55:44.228Z,-2.16
2023-12-03T02:58:14.447Z,-2.22
2023-12-03T03:00:46.230Z,-2.27
2023-12-03T03:03:19.277Z,-2.24
2023-12-03T03:05:50.209Z,-2.24
2023-12-03T03:08:21.087Z,-2.23
2023-12-03T03:10:51.746Z,-2.23
2023-12-03T03:13:22.282Z,-2.26
2023-12-03T03:15:53.272Z,-2.32
2023-12-03T03:18:23.765Z,-2.34
2023-12-03T03:20:57.639Z,-2.35
2023-12-03T03:23:29.504Z,-2.39
2023-12-03T03:26:00.135Z,-2.40
2023-12-03T03:28:29.809Z,-2.40
2023-12-03T03:31:02.379Z,-2.42
2023-12-03T03:33:33.158Z,-2.45
2023-12-03T03:36:03.051Z,-2.48
2023-12-03T03:38:34.489Z,-2.48
2023-12-03T03:41:03.940Z,-2.47
2023-12-03T03:43:34.618Z,-2.49
2023-12-03T03:46:04.579Z,-2.50
2023-12-03T03:48:39.757Z,-2.50
2023-12-03T03:51:10.196Z,-2.55
2023-12-03T03:53:39.412Z,-2.59
2023-12-03T03:56:10.799Z,-2.60
2023-12-03T03:58:40.150Z,-2.57
2023-12-03T04:01:12.705Z,-2.58
2023-12-03T04:03:45.203Z,-2.65
2023-12-03T04:06:14.355Z,-2.71
2023-12-03T04:08:47.805Z,-2.73
2023-12-03T04:11:20.121Z,-2.75
2023-12-03T04:13:51.217Z,-2.76
2023-12-03T04:16:24.273Z,-2.77
2023-12-03T04:18:54.529Z,-2.76
2023-12-03T04:21:28.882Z,-2.74
2023-12-03T04:23:58.940Z,-2.72
2023-12-03T04:26:29.165Z,-2.69
2023-12-03T04:28:58.555Z,-2.67
2023-12-03T04:31:29.225Z,-2.67
2023-12-03T04:34:00.109Z,-2.65
2023-12-03T04:36:32.002Z,-2.62
2023-12-03T04:39:02.660Z,-2.58
2023-12-03T04:41:36.747Z,-2.54
2023-12-03T04:44:07.520Z,-2.50
2023-12-03T04:46:41.520Z,-2.46
2023-12-03T04:49:12.174Z,-2.41
2023-12-03T04:51:41.720Z,-2.37
2023-12-03T04:54:11.855Z,-2.34
2023-12-03T04:56:42.955Z,-2.32
2023-12-03T04:59:13.513Z,-2.30
2023-12-03T05:01:43.739Z,-2.27
2023-12-03T05:04:17.716Z,-2.23
2023-12-03T05:06:54.384Z,-2.19
2023-12-03T05:09:52.325Z,-2.15
2023-12-03T05:12:23.899Z,-2.09
2023-12-03T05:14:54.920Z,-2.05
2023-12-03T05:17:27.319Z,-2.03
2023-12-03T05:19:58.018Z,-2.03
2023-12-03T05:22:30.138Z,-2.00
2023-12-03T05:24:59.558Z,-1.98
2023-12-03T05:27:29.233Z,-1.95
2023-12-03T05:30:00.683Z,-1.91
2023-12-03T05:32:31.380Z,-1.90
2023-12-03T05:35:02.209Z,-1.90
2023-12-03T05:37:35.666Z,-1.89
2023-12-03T05:40:06.190Z,-1.88
2023-12-03T05:42:36.609Z,-1.85
2023-12-03T05:45:06.435Z,-1.83
2023-12-03T05:47:36.822Z,-1.81
2023-12-03T05:50:08.346Z,-1.79
2023-12-03T05:52:40.020Z,-1.80
2023-12-03T05:55:09.792Z,-1.79
2023-12-03T05:57:40.616Z,-1.77
2023-12-03T06:00:10.648Z,-1.75
2023-12-03T06:02:41.285Z,-1.73
2023-12-03T06:05:11.519Z,-1.70
2023-12-03T06:07:41.800Z,-1.66
2023-12-03T06:10:12.125Z,-1.61
2023-12-03T06:12:43.218Z,-1.57
2023-12-03T06:15:13.737Z,-1.55
2023-12-03T06:17:43.696Z,-1.54
2023-12-03T06:20:13.431Z,-1.54
2023-12-03T06:22:42.703Z,-1.52
2023-12-03T06:25:12.091Z,-1.51
2023-12-03T06:27:41.770Z,-1.50
2023-12-03T06:30:11.633Z,-1.50
2023-12-03T06:32:41.723Z,-1.48
2023-12-03T06:35:12.936Z,-1.42
2023-12-03T06:37:43.449Z,-1.39
2023-12-03T06:40:13.924Z,-1.38
2023-12-03T06:42:43.149Z,-1.30
2023-12-03T06:45:15.089Z,-1.23
2023-12-03T06:47:44.333Z,-1.19
2023-12-03T06:50:15.459Z,-1.14
2023-12-03T06:52:47.989Z,-1.09
2023-12-03T06:55:17.691Z,-1.03
2023-12-03T06:57:47.027Z,-0.94
2023-12-03T07:00:17.158Z,-0.86
2023-12-03T07:02:49.101Z,-0.79
2023-12-03T07:05:19.036Z,-0.74
2023-12-03T07:07:52.963Z,-0.67
2023-12-03T07:10:48.745Z,-0.56
2023-12-03T07:13:18.621Z,-0.43
2023-12-03T07:15:52.470Z,-0.36
2023-12-03T07:18:23.565Z,-0.26
2023-12-03T07:20:55.515Z,-0.20
2023-12-03T07:23:26.558Z,-0.12
2023-12-03T07:25:56.472Z,-0.11
2023-12-03T07:28:28.960Z,-0.09
2023-12-03T07:30:58.769Z,-0.07
2023-12-03T07:33:29.570Z,-0.02
2023-12-03T07:36:00.774Z,0.03
2023-12-03T07:38:34.901Z,0.08
2023-12-03T07:41:10.032Z,0.13
2023-12-03T07:43:42.007Z,0.14
2023-12-03T07:46:23.879Z,0.14
2023-12-03T07:48:54.467Z,0.13
2023-12-03T07:51:28.157Z,0.16
2023-12-03T07:54:00.138Z,0.16
2023-12-03T07:56:41.421Z,0.17
2023-12-03T07:59:13.480Z,0.20
2023-12-03T08:01:44.014Z,0.21
2023-12-03T08:04:19.042Z,0.21
2023-12-03T08:07:02.472Z,0.21
2023-12-03T08:09:33.746Z,0.32
2023-12-03T08:12:11.728Z,0.46
2023-12-03T08:14:51.231Z,0.55
2023-12-03T08:17:22.977Z,0.59
2023-12-03T08:19:52.791Z,0.67
2023-12-03T08:22:36.300Z,0.77
2023-12-03T08:25:12.058Z,0.94
2023-12-03T08:27:45.768Z,1.22
2023-12-03T08:30:16.557Z,1.43
2023-12-03T08:32:54.305Z,1.58
2023-12-03T09:32:51.542Z,2.46
2023-12-03T09:35:55.535Z,2.16
2023-12-03T09:38:31.657Z,2.08
2023-12-03T09:45:26.356Z,2.23
2023-12-03T09:48:13.722Z,2.11
2023-12-03T09:50:46.598Z,2.12
2023-12-03T09:53:19.004Z,2.20
2023-12-03T09:55:58.372Z,2.09
2023-12-03T09:58:29.798Z,2.05
2023-12-03T10:01:06.380Z,1.95
2023-12-03T10:03:37.431Z,1.87
2023-12-03T10:06:09.509Z,1.88
2023-12-03T10:08:45.737Z,1.94
2023-12-03T10:15:44.321Z,2.26
2023-12-03T10:18:21.075Z,2.35
2023-12-03T10:21:19.983Z,3.30
2023-12-03T10:24:08.376Z,5.95
2023-12-03T10:26:40.148Z,8.12
2023-12-03T10:29:11.003Z,9.43
2023-12-03T10:31:42.054Z,10.64
2023-12-03T10:34:15.065Z,11.32
2023-12-03T10:36:46.629Z,10.73
2023-12-03T10:39:21.111Z,10.06
2023-12-03T10:41:53.731Z,9.69
2023-12-03T10:44:27.882Z,10.09
2023-12-03T10:47:04.989Z,10.04
2023-12-03T10:49:38.486Z,10.35
2023-12-03T10:52:09.329Z,10.76
2023-12-03T10:54:40.106Z,10.84
2023-12-03T10:57:11.013Z,11.20
2023-12-03T10:59:44.764Z,11.49
2023-12-03T11:02:18.189Z,11.78
2023-12-03T11:05:17.845Z,12.26
2023-12-03T11:07:48.525Z,12.84
2023-12-03T11:10:21.154Z,13.26
2023-12-03T11:12:51.187Z,13.59
2023-12-03T11:15:24.346Z,13.71
2023-12-03T11:17:53.857Z,13.70
2023-12-03T11:20:29.215Z,13.57
2023-12-03T11:23:40.200Z,12.91
2023-12-03T11:26:15.676Z,11.06
2023-12-03T11:28:57.477Z,9.53
2023-12-03T11:31:30.163Z,8.14
2023-12-03T11:34:02.450Z,7.08
2023-12-03T11:36:39.075Z,6.25
2023-12-03T11:39:09.802Z,5.49
2023-12-03T11:41:44.681Z,4.83
2023-12-03T11:44:23.088Z,4.22
2023-12-03T11:47:11.211Z,3.85
2023-12-03T11:49:44.587Z,3.56
2023-12-03T11:52:15.813Z,3.27
2023-12-03T11:55:09.792Z,3.00
2023-12-03T11:57:40.675Z,2.53
2023-12-03T12:00:14.159Z,2.12
2023-12-03T12:02:44.774Z,1.80
2023-12-03T12:05:15.726Z,1.54
2023-12-03T12:08:02.923Z,1.30
2023-12-03T12:10:36.611Z,1.02
2023-12-03T12:13:08.156Z,0.85
2023-12-03T12:15:38.783Z,0.72
2023-12-03T12:18:12.958Z,0.64
2023-12-03T12:20:44.552Z,0.55
2023-12-03T12:23:14.695Z,0.53
2023-12-03T12:25:48.654Z,0.50
2023-12-03T12:28:20.456Z,0.46
2023-12-03T12:30:51.362Z,0.41
2023-12-03T12:33:21.610Z,0.42
2023-12-03T12:35:53.678Z,0.39
2023-12-03T12:38:24.694Z,0.44
2023-12-03T12:40:58.005Z,0.41
2023-12-03T12:43:29.005Z,0.35
2023-12-03T12:46:10.781Z,0.25
2023-12-03T12:48:43.688Z,0.20
2023-12-03T12:51:26.020Z,0.12
2023-12-03T12:54:03.187Z,0.06
2023-12-03T12:56:34.589Z,0.04
2023-12-03T12:59:05.509Z,0.06
2023-12-03T13:01:37.475Z,0.07
2023-12-03T13:04:10.448Z,0.04
2023-12-03T13:06:41.092Z,-0.06
2023-12-03T13:09:16.657Z,-0.14
2023-12-03T13:11:50.904Z,-0.18
2023-12-03T13:14:22.312Z,-0.19
2023-12-03T13:16:55.593Z,-0.22
2023-12-03T13:19:26.699Z,-0.21
2023-12-03T13:22:00.756Z,-0.15
2023-12-03T13:24:34.104Z,0.03
2023-12-03T13:27:04.810Z,0.03
2023-12-03T13:29:37.885Z,0.02
2023-12-03T13:32:07.709Z,-0.01
2023-12-03T13:34:39.888Z,0.07
2023-12-03T13:37:13.206Z,0.05
2023-12-03T13:39:44.627Z,-0.14
2023-12-03T13:42:15.827Z,-0.26
2023-12-03T13:44:44.978Z,-0.38
2023-12-03T13:48:04.989Z,-0.53
2023-12-03T13:50:41.895Z,-0.74
2023-12-03T13:53:13.638Z,-0.88
2023-12-03T13:55:46.353Z,-0.99
2023-12-03T13:58:42.085Z,-1.07
2023-12-03T14:01:15.010Z,-1.19
2023-12-03T14:03:46.382Z,-1.39
2023-12-03T14:06:17.580Z,-1.57
2023-12-03T14:08:48.901Z,-1.71
2023-12-03T14:11:47.060Z,-1.82
2023-12-03T14:14:22.950Z,-1.90
2023-12-03T14:16:59.658Z,-1.96
2023-12-03T14:19:31.266Z,-1.99
2023-12-03T14:22:01.048Z,-1.97
2023-12-03T14:24:31.808Z,-1.98
2023-12-03T14:27:01.493Z,-1.99
2023-12-03T14:29:30.723Z,-2.00
2023-12-03T14:32:00.161Z,-2.01
2023-12-03T14:34:30.588Z,-2.03
2023-12-03T14:37:01.587Z,-2.06
2023-12-03T14:39:32.574Z,-2.06
2023-12-03T14:42:05.152Z,-2.06
2023-12-03T14:44:36.134Z,-2.06
2023-12-03T14:47:08.638Z,-2.06
2023-12-03T14:49:39.332Z,-2.05
2023-12-03T14:52:10.350Z,-2.03
2023-12-03T14:54:42.432Z,-2.02
2023-12-03T14:57:11.570Z,-2.01
2023-12-03T14:59:40.920Z,-2.02
2023-12-03T15:02:15.524Z,-2.04
2023-12-03T15:04:45.514Z,-2.05
2023-12-03T15:07:18.199Z,-2.04
2023-12-03T15:10:18.201Z,-2.04
2023-12-03T15:12:47.969Z,-2.02
2023-12-03T15:15:20.954Z,-2.03
2023-12-03T15:17:51.797Z,-2.06
2023-12-03T15:20:24.538Z,-2.09
2023-12-03T15:22:54.792Z,-2.13
2023-12-03T15:25:24.840Z,-2.17
2023-12-03T15:27:53.922Z,-2.19
2023-12-03T15:30:25.852Z,-2.20
2023-12-03T15:32:58.095Z,-2.21
2023-12-03T15:35:27.292Z,-2.20
2023-12-03T15:37:56.879Z,-2.18
2023-12-03T15:40:27.133Z,-2.19
2023-12-03T15:42:56.951Z,-2.20
2023-12-03T15:45:27.114Z,-2.22
2023-12-03T15:48:01.099Z,-2.26
2023-12-03T15:50:31.237Z,-2.28
2023-12-03T15:53:04.293Z,-2.32
2023-12-03T15:55:34.505Z,-2.35
2023-12-03T15:58:07.620Z,-2.39
2023-12-03T16:00:48.881Z,-2.39
2023-12-03T16:03:27.806Z,-2.40
2023-12-03T16:05:59.612Z,-2.40
2023-12-03T16:08:41.182Z,-2.41
2023-12-03T16:11:18.762Z,-2.43
2023-12-03T16:13:49.962Z,-2.43
2023-12-03T16:16:20.359Z,-2.44
2023-12-03T16:18:53.928Z,-2.46
2023-12-03T16:21:24.198Z,-2.48
2023-12-03T16:23:56.586Z,-2.48
2023-12-03T16:26:25.810Z,-2.49
2023-12-03T16:28:55.945Z,-2.50
2023-12-03T16:31:32.017Z,-2.51
2023-12-03T16:34:04.206Z,-2.49
2023-12-03T16:36:36.899Z,-2.50
2023-12-03T16:39:10.824Z,-2.52
2023-12-03T16:41:40.773Z,-2.52
2023-12-03T16:44:17.342Z,-2.51
2023-12-03T16:47:02.819Z,-2.51
2023-12-03T16:49:32.535Z,-2.50
2023-12-03T16:52:13.596Z,-2.47
2023-12-03T16:54:45.806Z,-2.47
2023-12-03T16:57:31.355Z,-2.48
2023-12-03T17:00:03.465Z,-2.48
2023-12-03T17:02:35.274Z,-2.49
2023-12-03T17:05:09.567Z,-2.47
2023-12-03T17:07:45.270Z,-2.46
2023-12-03T17:10:40.154Z,-2.44
2023-12-03T17:13:14.103Z,-2.44
2023-12-03T17:15:46.147Z,-2.43
2023-12-03T17:18:18.523Z,-2.43
2023-12-03T17:20:54.435Z,-2.42
2023-12-03T17:23:24.496Z,-2.41
2023-12-03T17:25:56.651Z,-2.41
2023-12-03T17:28:30.421Z,-2.40
2023-12-03T17:31:02.893Z,-2.38
2023-12-03T17:33:34.988Z,-2.37
2023-12-03T17:36:08.675Z,-2.34
2023-12-03T17:38:40.532Z,-2.33
2023-12-03T17:41:12.358Z,-2.33
2023-12-03T17:44:04.416Z,-2.32
2023-12-03T17:46:38.513Z,-2.29
2023-12-03T17:49:10.195Z,-2.24
2023-12-03T17:51:51.230Z,-2.19
2023-12-03T17:54:26.919Z,-2.17
2023-12-03T17:56:58.886Z,-2.16
2023-12-03T17:59:30.807Z,-2.14
2023-12-03T18:02:05.427Z,-2.13
2023-12-03T18:04:42.696Z,-2.11
2023-12-03T18:07:23.204Z,-2.10
2023-12-03T18:09:56.834Z,-2.10
2023-12-03T18:12:30.242Z,-2.10
2023-12-03T18:15:04.464Z,-2.09
2023-12-03T18:17:39.702Z,-2.09
2023-12-03T18:20:12.498Z,-2.09
2023-12-03T18:22:48.065Z,-2.10
2023-12-03T18:25:23.828Z,-2.11
2023-12-03T18:27:56.987Z,-2.11
2023-12-03T18:30:39.423Z,-2.13
2023-12-03T18:33:19.069Z,-2.14
2023-12-03T18:35:52.679Z,-2.14
2023-12-03T18:38:26.817Z,-2.15
2023-12-03T18:41:01.448Z,-2.15
2023-12-03T18:43:33.233Z,-2.14
2023-12-03T18:46:08.707Z,-2.13
2023-12-03T18:48:44.349Z,-2.14
2023-12-03T18:51:16.081Z,-2.15
2023-12-03T18:53:50.841Z,-2.14
2023-12-03T18:56:29.186Z,-2.14
2023-12-03T18:59:02.689Z,-2.12
2023-12-03T19:01:35.552Z,-2.11
2023-12-03T19:04:10.826Z,-2.11
2023-12-03T19:06:49.483Z,-2.11
2023-12-03T19:09:37.606Z,-2.08
2023-12-03T19:12:18.065Z,-2.06
2023-12-03T19:14:56.599Z,-2.04
2023-12-03T19:17:32.960Z,-2.03
2023-12-03T19:20:05.634Z,-2.02
2023-12-03T19:22:37.218Z,-2.00
2023-12-03T19:25:08.571Z,-1.99
2023-12-03T19:27:39.696Z,-1.99
2023-12-03T19:30:11.902Z,-1.97
2023-12-03T19:32:42.379Z,-1.95
2023-12-03T19:35:13.627Z,-1.92
2023-12-03T19:37:45.456Z,-1.90
2023-12-03T19:40:23.173Z,-1.89
2023-12-03T19:42:57.389Z,-1.89
2023-12-03T19:45:29.967Z,-1.91
2023-12-03T19:48:10.247Z,-1.92
2023-12-03T19:50:45.020Z,-1.90
2023-12-03T19:53:17.607Z,-1.88
2023-12-03T19:55:52.121Z,-1.86
2023-12-03T19:58:23.167Z,-1.85
2023-12-03T20:00:56.768Z,-1.85
2023-12-03T20:03:29.922Z,-1.85
2023-12-03T20:06:01.507Z,-1.85
2023-12-03T20:08:33.082Z,-1.83
2023-12-03T20:11:28.652Z,-1.81
2023-12-03T20:13:59.488Z,-1.79
2023-12-03T20:16:31.755Z,-1.76
2023-12-03T20:19:02.191Z,-1.75
2023-12-03T20:21:34.092Z,-1.75
2023-12-03T20:24:09.610Z,-1.74
2023-12-03T20:26:42.334Z,-1.72
2023-12-03T20:29:14.184Z,-1.68
2023-12-03T20:31:46.156Z,-1.64
2023-12-03T20:34:17.674Z,-1.62
2023-12-03T20:36:52.652Z,-1.59
2023-12-03T20:39:23.660Z,-1.56
2023-12-03T20:41:56.742Z,-1.51
2023-12-03T20:44:28.220Z,-1.43
2023-12-03T20:47:01.476Z,-1.35
2023-12-03T20:49:33.682Z,-1.29
2023-12-03T20:52:06.346Z,-1.22
2023-12-03T20:54:40.529Z,-1.14
2023-12-03T20:57:12.859Z,-1.09
2023-12-03T20:59:45.716Z,-1.08
2023-12-03T21:02:17.961Z,-1.10
2023-12-03T21:04:49.910Z,-1.11
2023-12-03T21:07:21.142Z,-1.05
2023-12-03T21:09:59.209Z,-1.00
2023-12-03T21:12:29.956Z,-0.96
2023-12-03T21:15:01.501Z,-0.89
2023-12-03T21:17:32.112Z,-0.89
2023-12-03T21:20:04.457Z,-0.91
2023-12-03T21:22:35.275Z,-0.85
2023-12-03T21:25:06.835Z,-0.75
2023-12-03T21:27:38.243Z,-0.68
2023-12-03T21:30:11.026Z,-0.69
2023-12-03T21:32:43.578Z,-0.61
2023-12-03T21:35:14.039Z,-0.47
2023-12-03T21:37:47.531Z,-0.40
2023-12-03T21:40:18.631Z,-0.41
2023-12-03T21:42:51.529Z,-0.44
2023-12-03T21:45:23.707Z,-0.38
2023-12-03T21:47:53.876Z,-0.26
2023-12-03T21:50:24.460Z,-0.36
2023-12-03T21:52:55.999Z,-0.35
2023-12-03T21:55:26.954Z,-0.41
2023-12-03T21:57:56.897Z,-0.45
2023-12-03T22:00:28.333Z,-0.46
2023-12-03T22:02:58.170Z,-0.50
2023-12-03T22:05:31.145Z,-0.56
2023-12-03T22:08:03.838Z,-0.58
2023-12-03T22:10:36.512Z,-0.62
2023-12-03T22:13:07.616Z,-0.69
2023-12-03T22:15:38.747Z,-0.79
2023-12-03T22:18:09.265Z,-0.82
2023-12-03T22:20:39.358Z,-0.83
2023-12-03T22:23:08.773Z,-0.80
2023-12-03T22:25:40.602Z,-0.77
2023-12-03T22:28:12.140Z,-0.84
2023-12-03T22:30:42.953Z,-0.86
2023-12-03T22:33:15.002Z,-0.93
2023-12-03T22:35:44.360Z,-1.05
2023-12-03T22:38:15.420Z,-1.18
2023-12-03T22:40:45.998Z,-1.30
2023-12-03T22:43:17.658Z,-1.46
2023-12-03T22:45:48.114Z,-1.64
2023-12-03T22:48:19.439Z,-1.74
2023-12-03T22:50:50.339Z,-1.92
2023-12-03T22:53:20.983Z,-2.06
2023-12-03T22:55:51.781Z,-2.17
2023-12-03T22:58:22.168Z,-2.20
2023-12-03T23:00:51.349Z,-2.17
2023-12-03T23:03:23.402Z,-2.15
2023-12-03T23:05:53.441Z,-2.10
2023-12-03T23:08:25.821Z,-2.04
2023-12-03T23:11:00.520Z,-1.96
2023-12-03T23:13:30.361Z,-1.85
2023-12-03T23:16:03.336Z,-1.55
2023-12-03T23:18:34.876Z,-1.42
2023-12-03T23:21:07.171Z,-1.47
2023-12-03T23:23:37.312Z,-1.41
2023-12-03T23:26:09.899Z,-1.42
2023-12-03T23:28:41.189Z,-1.30
2023-12-03T23:31:12.044Z,-1.18
2023-12-03T23:33:42.322Z,-1.23
2023-12-03T23:36:13.911Z,-1.17
2023-12-03T23:38:45.059Z,-0.93
2023-12-03T23:41:15.788Z,-0.79
2023-12-03T23:43:45.157Z,-0.91
2023-12-03T23:46:17.595Z,-0.97
2023-12-03T23:48:48.908Z,-1.04
2023-12-03T23:51:20.741Z,-1.18
2023-12-03T23:53:54.620Z,-1.28
2023-12-03T23:56:28.052Z,-1.35
2023-12-03T23:58:59.720Z,-1.36
